Palmerston, Canada
Current Conditions -  °F | °C
As of 7:09 PM on Thursday 27 Nov 2014 (Local Time) from CYKF Reporting Station
Light Snow Light Snow  
Wind Chill: 19°   Ceiling: 4000
Heat Index: 28°   Visibility: 7mi
Dew Point: 25°   Wind: 10mph
Humidity: 86%   Direction: 340°NNW
Pressure: 30.08"   Gusts: NA
Location:  43.83°N, 80.85°W
Report Text: CYKF 280009Z AUTO 34009KT 7SM -SN SCT010 SCT018 OVC040 M02/M04 A3008 RMK SLP201
Loading
Personal Weather Stations






























Interactive Weather Map New forecast layout! Learn more

10-Day Weather Forecast

Advertisements
Track Severe Weather on mobile